Terminal Aerodrome Forecast
Issued by NWS Charleston, SC

Home | Current Version | Previous Version | Text Only | Print | Product List | Glossary On
Versions: 1 2 3 4 5 6 7 8 9 10 11 12 13 14 15
184
FTUS42 KCHS 221846 AAA
TAFSAV
TAF AMD
KSAV 221846Z 2219/2318 08008KT 6SM -RA SCT025 BKN050
      TEMPO 2219/2220 1SM +RA BR SCT010 BKN020
     FM222200 11008KT P6SM VCSH SCT020 BKN040
     FM230400 08006KT P6SM SCT030
     FM231300 02004KT P6SM BKN035=

USA.gov is the U.S. government's official web portal to all federal, state and local government web resources and services.